Time;durP1;ratioP1;P1;durP2;ratioP2;P2;SDS_P1;SDS_P2;PMS_P1;PMS_P2;Temp;Humidity;BMP_temperature;BMP_pressure;BME280_temperature;BME280_humidity;BME280_pressure;Samples;Min_cycle;Max_cycle;Signal;HPM_P1;HPM_P2
2021/09/08 00:00:35;;;;;;;23.15;17.48;;;19.40;99.90;;;;;;5008279;28;25095;-74
2021/09/08 00:03:01;;;;;;;20.95;16.33;;;19.30;99.90;;;;;;5006415;28;25080;-73
2021/09/08 00:05:26;;;;;;;23.30;16.52;;;19.30;99.90;;;;;;4993357;28;25058;-74
2021/09/08 00:07:52;;;;;;;27.00;18.17;;;19.40;99.90;;;;;;5001049;28;25051;-74
2021/09/08 00:10:18;;;;;;;22.40;17.50;;;19.40;99.90;;;;;;5011010;28;25062;-73
2021/09/08 00:12:43;;;;;;;24.38;17.88;;;19.30;99.90;;;;;;5011062;28;25068;-73
2021/09/08 00:15:10;;;;;;;26.40;18.15;;;19.30;99.90;;;;;;5011587;28;25054;-73
2021/09/08 00:17:36;;;;;;;29.10;17.67;;;19.30;99.90;;;;;;5011244;28;25076;-72
2021/09/08 00:20:03;;;;;;;20.42;18.02;;;19.30;99.90;;;;;;5011345;28;25146;-73
2021/09/08 00:22:29;;;;;;;27.73;18.42;;;19.20;99.90;;;;;;5011732;28;25073;-73
2021/09/08 00:24:54;;;;;;;26.75;18.40;;;19.00;99.90;;;;;;5012239;28;25055;-71
2021/09/08 00:27:20;;;;;;;25.50;18.08;;;19.10;99.90;;;;;;5013554;28;25086;-74
2021/09/08 00:29:46;;;;;;;24.00;17.63;;;19.10;99.90;;;;;;5004616;28;25052;-74
2021/09/08 00:32:11;;;;;;;26.60;18.90;;;19.10;99.90;;;;;;5006135;28;25180;-73
2021/09/08 00:34:37;;;;;;;24.02;18.33;;;19.00;99.90;;;;;;5012684;28;25074;-74
2021/09/08 00:37:03;;;;;;;26.85;18.30;;;18.90;99.90;;;;;;5001671;28;25064;-73
2021/09/08 00:39:28;;;;;;;26.92;19.13;;;18.90;99.90;;;;;;5004308;28;25093;-72
2021/09/08 00:41:54;;;;;;;25.30;18.83;;;18.80;99.90;;;;;;4998145;28;25079;-73
2021/09/08 00:44:24;;;;;;;22.80;16.67;;;18.90;99.90;;;;;;4990672;28;25086;-73
2021/09/08 00:46:49;;;;;;;25.70;19.17;;;19.00;99.90;;;;;;5004997;28;25145;-72
2021/09/08 00:49:15;;;;;;;26.23;17.73;;;19.10;99.90;;;;;;5001422;28;25065;-72
2021/09/08 00:51:40;;;;;;;24.85;18.05;;;19.20;99.90;;;;;;5003596;28;25149;-72
2021/09/08 00:54:12;;;;;;;28.30;19.30;;;19.20;99.90;;;;;;5010859;28;25108;-74
2021/09/08 00:56:40;;;;;;;24.52;18.95;;;19.20;99.90;;;;;;5010033;28;25110;-72
2021/09/08 00:59:08;;;;;;;28.48;18.92;;;19.30;99.90;;;;;;5011035;28;25092;-73
2021/09/08 01:01:34;;;;;;;25.15;18.80;;;19.30;99.90;;;;;;5003496;28;25158;-73
2021/09/08 01:04:00;;;;;;;26.52;18.00;;;19.20;99.90;;;;;;5007738;28;25163;-72
2021/09/08 01:06:26;;;;;;;24.75;18.67;;;19.20;99.90;;;;;;5008458;28;25069;-71
2021/09/08 01:08:53;;;;;;;24.02;17.45;;;19.20;99.90;;;;;;5010154;28;25090;-73
2021/09/08 01:11:21;;;;;;;24.42;19.13;;;19.20;99.90;;;;;;5005435;28;25076;-72
2021/09/08 01:13:46;;;;;;;26.25;19.67;;;19.00;99.90;;;;;;5005070;28;25070;-73
2021/09/08 01:16:12;;;;;;;26.77;19.20;;;19.00;99.90;;;;;;5010546;28;25052;-75
2021/09/08 01:18:38;;;;;;;31.52;18.75;;;18.80;99.90;;;;;;5009923;28;25074;-72
2021/09/08 01:21:05;;;;;;;24.88;18.08;;;18.90;99.90;;;;;;5010450;28;25067;-72
2021/09/08 01:23:32;;;;;;;24.35;18.60;;;18.80;99.90;;;;;;5010624;28;25075;-73
2021/09/08 01:26:07;;;;;;;24.17;19.40;;;18.80;99.90;;;;;;4996172;28;25051;-72
2021/09/08 01:28:33;;;;;;;28.15;19.75;;;18.80;99.90;;;;;;5009748;28;25137;-72
2021/09/08 01:30:59;;;;;;;26.52;18.83;;;18.70;99.90;;;;;;4996100;28;25156;-72
2021/09/08 01:33:25;;;;;;;27.02;18.70;;;18.70;99.90;;;;;;5010614;28;25144;-72
2021/09/08 01:35:51;;;;;;;26.63;20.15;;;18.70;99.90;;;;;;5011289;28;25104;-72
2021/09/08 01:38:17;;;;;;;25.60;19.13;;;18.70;99.90;;;;;;5011615;28;25075;-72
2021/09/08 01:40:43;;;;;;;32.72;21.25;;;18.60;99.90;;;;;;5007469;28;25123;-72
2021/09/08 01:43:09;;;;;;;25.70;19.05;;;18.60;99.90;;;;;;5008569;28;25098;-71
2021/09/08 01:45:38;;;;;;;24.15;17.50;;;18.60;99.90;;;;;;5025682;28;25074;-72
2021/09/08 01:48:04;;;;;;;27.27;19.48;;;18.60;99.90;;;;;;5017315;28;25119;-72
2021/09/08 01:50:30;;;;;;;28.70;19.95;;;18.60;99.90;;;;;;5016043;28;25091;-72
2021/09/08 01:52:56;;;;;;;28.30;19.92;;;18.50;99.90;;;;;;5012250;28;25077;-73
2021/09/08 01:55:22;;;;;;;29.90;19.38;;;18.40;99.90;;;;;;5015050;28;25106;-71
2021/09/08 01:57:48;;;;;;;28.73;20.33;;;18.40;99.90;;;;;;5017694;28;25069;-72
2021/09/08 02:00:14;;;;;;;28.48;20.38;;;18.30;99.90;;;;;;5021622;28;25108;-72
2021/09/08 02:02:41;;;;;;;25.00;19.85;;;18.20;99.90;;;;;;5032418;28;25065;-72
2021/09/08 02:05:07;;;;;;;26.55;21.08;;;18.30;99.90;;;;;;5031463;28;25072;-72
2021/09/08 02:07:33;;;;;;;28.40;20.25;;;18.20;99.90;;;;;;5032079;28;25078;-72
2021/09/08 02:10:04;;;;;;;25.95;19.30;;;18.20;99.90;;;;;;5032711;28;25051;-71
2021/09/08 02:12:30;;;;;;;27.23;20.60;;;18.20;99.90;;;;;;5025956;28;25067;-72
2021/09/08 02:14:56;;;;;;;27.50;21.70;;;18.10;99.90;;;;;;5028989;28;25069;-71
2021/09/08 02:17:22;;;;;;;30.42;20.58;;;18.10;99.90;;;;;;5017528;28;25080;-71
2021/09/08 02:19:51;;;;;;;29.50;21.02;;;18.10;99.90;;;;;;5022616;28;25054;-72
2021/09/08 02:22:16;;;;;;;36.30;21.30;;;18.10;99.90;;;;;;5016428;28;25077;-72
2021/09/08 02:24:42;;;;;;;30.25;21.10;;;18.10;99.90;;;;;;5015715;28;25075;-72
2021/09/08 02:27:08;;;;;;;28.92;21.17;;;18.10;99.90;;;;;;5027621;28;25090;-71
2021/09/08 02:29:33;;;;;;;30.75;21.58;;;18.20;99.90;;;;;;5017686;28;25069;-72
2021/09/08 02:32:00;;;;;;;25.90;20.58;;;18.20;99.90;;;;;;5017369;28;25059;-72
2021/09/08 02:34:25;;;;;;;30.52;21.60;;;18.20;99.90;;;;;;5012848;28;25077;-73
2021/09/08 02:36:51;;;;;;;28.88;21.65;;;18.20;99.90;;;;;;5003767;28;25080;-72
2021/09/08 02:39:17;;;;;;;32.00;22.38;;;18.10;99.90;;;;;;5008119;28;25078;-73
2021/09/08 02:41:42;;;;;;;30.25;21.98;;;18.20;99.90;;;;;;5006781;28;25082;-72
2021/09/08 02:44:08;;;;;;;30.48;22.77;;;18.20;99.90;;;;;;5017039;28;25064;-71
2021/09/08 02:46:34;;;;;;;29.23;20.65;;;18.20;99.90;;;;;;4999875;28;25092;-73
2021/09/08 02:49:00;;;;;;;31.25;22.17;;;18.20;99.90;;;;;;5010962;28;25072;-72
2021/09/08 02:51:25;;;;;;;28.58;20.83;;;18.10;99.90;;;;;;5011715;28;25074;-72
2021/09/08 02:53:51;;;;;;;29.25;21.42;;;18.00;99.90;;;;;;5014508;28;25078;-72
2021/09/08 02:56:17;;;;;;;31.38;22.13;;;18.10;99.90;;;;;;5020678;28;25071;-72
2021/09/08 02:58:42;;;;;;;35.92;23.02;;;18.10;99.90;;;;;;5006552;28;25057;-72
2021/09/08 03:01:11;;;;;;;32.92;23.25;;;18.00;99.90;;;;;;5005954;28;25121;-70
2021/09/08 03:03:38;;;;;;;35.28;23.08;;;17.90;99.90;;;;;;4992234;28;25153;-71
2021/09/08 03:06:05;;;;;;;35.13;22.83;;;17.90;99.90;;;;;;4994261;28;25068;-72
2021/09/08 03:08:30;;;;;;;33.95;23.08;;;17.90;99.90;;;;;;5007729;28;25053;-71
2021/09/08 03:10:57;;;;;;;31.10;24.75;;;17.80;99.90;;;;;;4999264;28;25132;-71
2021/09/08 03:13:23;;;;;;;34.45;23.92;;;17.70;99.90;;;;;;4997078;28;25171;-72
2021/09/08 03:15:48;;;;;;;30.15;23.38;;;17.70;99.90;;;;;;5023310;28;25064;-73
2021/09/08 03:18:14;;;;;;;33.53;23.23;;;17.70;99.90;;;;;;5013228;28;25140;-73
2021/09/08 03:20:41;;;;;;;35.40;24.30;;;17.70;99.90;;;;;;5013430;28;25059;-71
2021/09/08 03:23:06;;;;;;;31.15;23.98;;;17.60;99.90;;;;;;5017429;28;25083;-72
2021/09/08 03:25:32;;;;;;;31.67;23.40;;;17.70;99.90;;;;;;5015975;28;25115;-72
2021/09/08 03:27:58;;;;;;;34.80;25.10;;;17.80;99.90;;;;;;5016086;28;25057;-71
2021/09/08 03:30:24;;;;;;;31.15;23.48;;;17.90;99.90;;;;;;5013863;28;25114;-72
2021/09/08 03:32:49;;;;;;;32.80;23.25;;;18.00;99.90;;;;;;5012175;28;25080;-71
2021/09/08 03:35:15;;;;;;;33.47;24.58;;;18.10;99.90;;;;;;5012416;28;25075;-70
2021/09/08 03:37:42;;;;;;;34.63;23.90;;;18.10;99.90;;;;;;5013006;28;25051;-72
2021/09/08 03:40:08;;;;;;;31.42;23.40;;;18.00;99.90;;;;;;5011810;28;25054;-72
2021/09/08 03:42:35;;;;;;;37.72;26.15;;;17.90;99.90;;;;;;5011841;28;25076;-72
2021/09/08 03:45:02;;;;;;;34.13;24.95;;;17.90;99.90;;;;;;5011587;28;25057;-71
2021/09/08 03:47:28;;;;;;;35.10;25.23;;;17.90;99.90;;;;;;5009597;28;25087;-72
2021/09/08 03:49:53;;;;;;;34.05;24.33;;;17.90;99.90;;;;;;5011699;28;25171;-72
2021/09/08 03:52:19;;;;;;;32.38;24.75;;;17.80;99.90;;;;;;5011542;28;25068;-72
2021/09/08 03:54:44;;;;;;;36.80;25.27;;;17.80;99.90;;;;;;5011172;28;25055;-72
2021/09/08 03:57:10;;;;;;;34.83;24.35;;;17.90;99.90;;;;;;5011026;28;25070;-72
2021/09/08 03:59:37;;;;;;;36.38;24.90;;;17.80;99.90;;;;;;5011630;28;25067;-70
2021/09/08 04:02:03;;;;;;;34.75;25.17;;;17.70;99.90;;;;;;5011355;28;25064;-72
2021/09/08 04:04:29;;;;;;;36.50;25.67;;;17.60;99.90;;;;;;5016144;28;25083;-71
2021/09/08 04:06:54;;;;;;;38.65;24.10;;;17.70;99.90;;;;;;5014973;28;25050;-71
2021/09/08 04:09:20;;;;;;;35.25;27.00;;;17.70;99.90;;;;;;5016120;28;25087;-71
2021/09/08 04:11:46;;;;;;;35.72;25.05;;;17.70;99.90;;;;;;5015746;28;25071;-70
2021/09/08 04:14:12;;;;;;;42.08;27.13;;;17.70;99.90;;;;;;5015284;28;25085;-72
2021/09/08 04:16:37;;;;;;;38.65;27.80;;;17.60;99.90;;;;;;5015192;28;25102;-70
2021/09/08 04:19:03;;;;;;;38.53;27.60;;;17.50;99.90;;;;;;5014300;28;25072;-71
2021/09/08 04:21:30;;;;;;;37.40;26.73;;;17.30;99.90;;;;;;5013278;28;25128;-72
2021/09/08 04:23:55;;;;;;;36.20;27.13;;;17.20;99.90;;;;;;5011798;28;25070;-71
2021/09/08 04:26:21;;;;;;;41.13;28.20;;;17.30;99.90;;;;;;5012163;28;25147;-72
2021/09/08 04:28:47;;;;;;;37.20;27.65;;;17.30;99.90;;;;;;5011821;28;25191;-72
2021/09/08 04:31:13;;;;;;;38.50;26.13;;;17.30;99.90;;;;;;5011688;28;25056;-72
2021/09/08 04:33:39;;;;;;;33.97;26.20;;;17.50;99.90;;;;;;5011508;28;25156;-72
2021/09/08 04:36:05;;;;;;;34.75;27.75;;;17.40;99.90;;;;;;5009011;28;25051;-72
2021/09/08 04:38:31;;;;;;;36.10;27.00;;;17.40;99.90;;;;;;5009250;28;25079;-72
2021/09/08 04:40:57;;;;;;;39.55;28.13;;;17.40;99.90;;;;;;5010450;28;25108;-72
2021/09/08 04:43:23;;;;;;;41.90;29.20;;;17.40;99.90;;;;;;5010774;28;25059;-72
2021/09/08 04:45:49;;;;;;;37.50;26.08;;;17.40;99.90;;;;;;5010965;28;25138;-72
2021/09/08 04:48:21;;;;;;;36.90;27.70;;;17.40;99.90;;;;;;5032607;28;25124;-72
2021/09/08 04:50:47;;;;;;;37.75;27.73;;;17.40;99.90;;;;;;5026435;28;25104;-71
2021/09/08 04:53:13;;;;;;;35.13;28.58;;;17.40;99.90;;;;;;5014341;28;25055;-71
2021/09/08 04:55:39;;;;;;;42.47;28.55;;;17.30;99.90;;;;;;5004811;28;25072;-72
2021/09/08 04:58:06;;;;;;;36.78;27.70;;;17.30;99.90;;;;;;5010884;28;25069;-73
2021/09/08 05:00:31;;;;;;;37.90;29.60;;;17.30;99.90;;;;;;5007170;28;25100;-74
2021/09/08 05:02:57;;;;;;;39.90;29.00;;;17.20;99.90;;;;;;5010417;28;25104;-73
2021/09/08 05:05:22;;;;;;;42.28;29.67;;;17.20;99.90;;;;;;5009954;28;25102;-75
2021/09/08 05:07:48;;;;;;;42.28;29.55;;;17.20;99.90;;;;;;5009596;28;25071;-74
2021/09/08 05:10:13;;;;;;;39.10;28.25;;;17.20;99.90;;;;;;5009508;28;25063;-73
2021/09/08 05:12:39;;;;;;;44.00;30.15;;;17.20;99.90;;;;;;5008438;28;24864;-73
2021/09/08 05:15:06;;;;;;;41.05;28.63;;;17.10;99.90;;;;;;5010340;28;25017;-72
2021/09/08 05:17:31;;;;;;;34.97;26.13;;;17.10;99.90;;;;;;5010095;28;25060;-73
2021/09/08 05:19:57;;;;;;;38.60;27.50;;;17.10;99.90;;;;;;5009656;28;25079;-75
2021/09/08 05:22:22;;;;;;;35.97;27.88;;;17.20;99.90;;;;;;5010303;28;25082;-73
2021/09/08 05:24:48;;;;;;;42.35;28.75;;;17.20;99.90;;;;;;5010392;28;25098;-72
2021/09/08 05:27:14;;;;;;;42.40;29.63;;;17.20;99.90;;;;;;5010280;28;25079;-74
2021/09/08 05:29:40;;;;;;;38.08;27.90;;;17.20;99.90;;;;;;5010798;28;25074;-74
2021/09/08 05:32:06;;;;;;;42.15;28.75;;;17.30;99.90;;;;;;5011119;28;25060;-74
2021/09/08 05:34:31;;;;;;;37.00;28.30;;;17.30;99.90;;;;;;5014250;28;25060;-73
2021/09/08 05:36:57;;;;;;;37.83;27.80;;;17.30;99.90;;;;;;5012611;28;25061;-73
2021/09/08 05:39:24;;;;;;;43.08;28.05;;;17.20;99.90;;;;;;5004317;28;25150;-73
2021/09/08 05:41:49;;;;;;;39.33;29.55;;;17.30;99.90;;;;;;4994133;28;25102;-74
2021/09/08 05:44:15;;;;;;;39.88;28.13;;;17.30;99.90;;;;;;4996745;28;25084;-73
2021/09/08 05:46:41;;;;;;;41.30;27.90;;;17.30;99.90;;;;;;5003535;28;25068;-72
2021/09/08 05:49:07;;;;;;;37.55;28.52;;;17.30;99.90;;;;;;5006845;28;25078;-75
2021/09/08 05:51:32;;;;;;;35.80;28.40;;;17.40;99.90;;;;;;5008810;28;25148;-73
2021/09/08 05:53:58;;;;;;;43.38;28.60;;;17.40;99.90;;;;;;5003253;28;25087;-73
2021/09/08 05:56:24;;;;;;;42.33;28.17;;;17.50;99.90;;;;;;5002428;28;25085;-73
2021/09/08 05:58:49;;;;;;;40.08;29.45;;;17.50;99.90;;;;;;4997945;28;25070;-73
2021/09/08 06:01:15;;;;;;;38.65;28.73;;;17.60;99.90;;;;;;4997095;28;25079;-72
2021/09/08 06:03:41;;;;;;;36.13;27.92;;;17.50;99.90;;;;;;4996976;28;25108;-73
2021/09/08 06:06:06;;;;;;;39.75;28.45;;;17.50;99.90;;;;;;4996684;28;25076;-75
2021/09/08 06:08:32;;;;;;;36.83;29.33;;;17.50;99.90;;;;;;5000388;28;25136;-73
2021/09/08 06:10:58;;;;;;;37.10;27.25;;;17.50;99.90;;;;;;4999904;28;25063;-72
2021/09/08 06:13:23;;;;;;;34.13;26.65;;;17.60;99.90;;;;;;5004556;28;25115;-73
2021/09/08 06:15:49;;;;;;;38.25;28.83;;;17.60;99.90;;;;;;4998289;28;25088;-72
2021/09/08 06:18:15;;;;;;;37.75;28.73;;;17.50;99.90;;;;;;4999390;28;25098;-72
2021/09/08 06:20:41;;;;;;;38.22;29.20;;;17.40;99.90;;;;;;4998967;28;25096;-74
2021/09/08 06:23:06;;;;;;;46.90;28.17;;;17.40;99.90;;;;;;4991281;28;25067;-73
2021/09/08 06:25:32;;;;;;;35.70;28.33;;;17.40;99.90;;;;;;5001368;28;25074;-73
2021/09/08 06:27:58;;;;;;;40.83;28.88;;;17.50;99.90;;;;;;5003565;28;25073;-76
2021/09/08 06:30:24;;;;;;;42.97;28.85;;;17.50;99.90;;;;;;4997180;28;25093;-75
2021/09/08 06:32:49;;;;;;;36.45;28.25;;;17.40;99.90;;;;;;4998177;28;25144;-74
2021/09/08 06:35:15;;;;;;;40.72;28.77;;;17.50;99.90;;;;;;4998701;28;25062;-72
2021/09/08 06:37:43;;;;;;;38.33;28.17;;;17.50;99.90;;;;;;4991826;28;25077;-73
2021/09/08 06:40:09;;;;;;;38.10;28.88;;;17.60;99.90;;;;;;4989899;28;25144;-72
2021/09/08 06:42:35;;;;;;;40.47;28.83;;;17.60;99.90;;;;;;5000348;28;25076;-73
2021/09/08 06:45:01;;;;;;;36.45;28.55;;;17.60;99.90;;;;;;5007903;28;25053;-74
2021/09/08 06:47:27;;;;;;;34.05;28.15;;;17.60;99.90;;;;;;5009746;28;25071;-73
2021/09/08 06:49:53;;;;;;;40.65;29.63;;;17.70;99.90;;;;;;4989538;28;25057;-74
2021/09/08 06:52:20;;;;;;;39.33;28.52;;;17.80;99.90;;;;;;4989154;28;25111;-72
2021/09/08 06:54:46;;;;;;;37.95;29.02;;;17.80;99.90;;;;;;4991617;28;25063;-73
2021/09/08 06:57:13;;;;;;;37.58;28.23;;;17.90;99.90;;;;;;4991717;28;25069;-74
2021/09/08 06:59:41;;;;;;;42.60;29.17;;;17.90;99.90;;;;;;5003902;28;25082;-71
2021/09/08 07:02:08;;;;;;;38.30;26.40;;;18.00;99.90;;;;;;5013218;28;25086;-73
2021/09/08 07:04:34;;;;;;;37.75;28.25;;;18.10;99.90;;;;;;5012768;28;25083;-75
2021/09/08 07:06:59;;;;;;;35.67;26.90;;;18.20;99.90;;;;;;5017255;28;25061;-72
2021/09/08 07:09:25;;;;;;;34.00;26.80;;;18.30;99.90;;;;;;5011538;28;25113;-71
2021/09/08 07:11:51;;;;;;;37.15;27.63;;;18.40;99.90;;;;;;4996332;28;25159;-75
2021/09/08 07:14:16;;;;;;;37.88;28.17;;;18.40;99.90;;;;;;4998668;28;25082;-74
2021/09/08 07:16:42;;;;;;;43.45;28.48;;;18.40;99.90;;;;;;5003091;28;25063;-73
2021/09/08 07:19:07;;;;;;;39.95;28.95;;;18.40;99.90;;;;;;5000420;28;25055;-71
2021/09/08 07:21:33;;;;;;;37.72;27.25;;;18.40;99.90;;;;;;5002556;28;25052;-73
2021/09/08 07:23:59;;;;;;;40.05;28.23;;;18.30;99.90;;;;;;5002712;28;25150;-72
2021/09/08 07:26:26;;;;;;;37.38;26.77;;;18.30;99.90;;;;;;5001740;28;25070;-73
2021/09/08 07:28:52;;;;;;;33.92;26.48;;;18.50;99.90;;;;;;5002797;28;25087;-73
2021/09/08 07:31:18;;;;;;;39.92;27.13;;;18.50;99.90;;;;;;5002279;28;25072;-73
2021/09/08 07:33:44;;;;;;;41.53;27.08;;;18.60;99.90;;;;;;5000285;28;25076;-73
2021/09/08 07:36:10;;;;;;;40.72;27.02;;;18.70;99.90;;;;;;5004551;28;25072;-75
2021/09/08 07:38:36;;;;;;;38.60;27.92;;;18.80;99.90;;;;;;4994066;28;25053;-72
2021/09/08 07:41:01;;;;;;;35.80;27.08;;;18.80;99.90;;;;;;4997548;28;25069;-74
2021/09/08 07:43:27;;;;;;;38.75;26.30;;;19.00;99.90;;;;;;5012172;28;25175;-73
2021/09/08 07:45:53;;;;;;;35.20;25.83;;;19.10;99.90;;;;;;5012296;28;25102;-73
2021/09/08 07:48:20;;;;;;;35.72;24.92;;;19.20;99.90;;;;;;5012489;28;25074;-74
2021/09/08 07:50:47;;;;;;;34.40;26.50;;;19.40;99.90;;;;;;5010726;28;25068;-73
2021/09/08 07:53:12;;;;;;;35.90;25.55;;;19.40;99.90;;;;;;5011271;28;25086;-72
2021/09/08 07:55:38;;;;;;;38.20;27.38;;;19.50;99.90;;;;;;5011623;28;25133;-72
2021/09/08 07:58:04;;;;;;;37.05;26.63;;;19.60;99.90;;;;;;5012539;28;25111;-73
2021/09/08 08:00:33;;;;;;;38.88;26.42;;;19.60;99.90;;;;;;5012163;28;25121;-73
2021/09/08 08:02:59;;;;;;;35.78;26.10;;;19.70;99.90;;;;;;5012689;28;25079;-72
2021/09/08 08:05:24;;;;;;;33.80;26.05;;;19.70;99.90;;;;;;5010962;28;25066;-72
2021/09/08 08:07:50;;;;;;;34.08;26.52;;;19.80;99.90;;;;;;5011506;28;25066;-77
2021/09/08 08:10:16;;;;;;;33.30;26.30;;;20.00;99.90;;;;;;5011868;28;25089;-74
2021/09/08 08:12:42;;;;;;;35.78;26.15;;;20.10;99.90;;;;;;5012218;28;25092;-74
2021/09/08 08:15:09;;;;;;;31.85;25.35;;;20.20;99.90;;;;;;5011938;28;25103;-73
2021/09/08 08:17:36;;;;;;;37.92;25.63;;;20.30;99.90;;;;;;5012395;28;25106;-74
2021/09/08 08:20:04;;;;;;;29.08;24.08;;;20.30;99.90;;;;;;5010556;28;25090;-73
2021/09/08 08:22:30;;;;;;;32.58;25.02;;;20.30;99.90;;;;;;5012219;28;25061;-73
2021/09/08 08:24:55;;;;;;;45.88;27.00;;;20.50;99.90;;;;;;5011110;28;25082;-72
2021/09/08 08:27:21;;;;;;;34.83;26.08;;;20.80;99.90;;;;;;5011819;28;25074;-73
2021/09/08 08:29:48;;;;;;;34.40;25.52;;;21.10;99.90;;;;;;5011755;28;25145;-73
2021/09/08 08:32:13;;;;;;;34.35;26.98;;;21.50;99.90;;;;;;5012933;28;25054;-74
2021/09/08 08:34:39;;;;;;;38.13;25.00;;;21.60;99.90;;;;;;5011835;28;25063;-74
2021/09/08 08:37:05;;;;;;;32.42;24.05;;;21.90;99.90;;;;;;5012528;28;25089;-72
2021/09/08 08:39:32;;;;;;;35.17;27.42;;;22.30;99.90;;;;;;5013396;28;25069;-75
2021/09/08 08:41:57;;;;;;;32.65;26.45;;;22.20;99.90;;;;;;5013374;28;25075;-77
2021/09/08 08:44:25;;;;;;;35.00;25.25;;;22.00;99.90;;;;;;5013022;28;25088;-74
2021/09/08 08:46:52;;;;;;;32.53;25.55;;;22.20;99.90;;;;;;5012620;28;25075;-74
2021/09/08 08:49:20;;;;;;;35.67;26.10;;;22.30;99.90;;;;;;5012506;28;25077;-75
2021/09/08 08:51:46;;;;;;;36.55;24.65;;;22.10;99.90;;;;;;5012552;28;25103;-72
2021/09/08 08:54:11;;;;;;;34.47;25.23;;;22.40;99.90;;;;;;5013172;28;25065;-73
2021/09/08 08:56:37;;;;;;;38.40;23.77;;;22.90;99.90;;;;;;5013141;28;25077;-72
2021/09/08 08:59:03;;;;;;;32.00;22.70;;;23.10;99.90;;;;;;5014367;28;25068;-73
2021/09/08 09:01:32;;;;;;;38.35;26.15;;;23.00;99.90;;;;;;5024730;28;25077;-75
2021/09/08 09:04:08;;;;;;;33.20;26.05;;;22.90;99.90;;;;;;5023142;28;25076;-74
2021/09/08 09:06:39;;;;;;;35.40;26.33;;;22.70;99.90;;;;;;5023471;28;25064;-74
2021/09/08 09:09:14;;;;;;;36.42;23.92;;;22.40;99.90;;;;;;5038653;28;25104;-75
2021/09/08 09:11:42;;;;;;;35.63;24.88;;;22.80;99.90;;;;;;5024677;28;25065;-73
2021/09/08 09:14:14;;;;;;;35.30;24.65;;;23.40;99.90;;;;;;5032535;28;25074;-74
2021/09/08 09:16:44;;;;;;;40.65;27.02;;;23.70;99.90;;;;;;5034044;28;25075;-73
2021/09/08 09:19:11;;;;;;;35.45;24.60;;;23.30;99.90;;;;;;5034144;28;25065;-74
2021/09/08 09:21:38;;;;;;;35.03;25.83;;;23.40;99.90;;;;;;5035308;28;25081;-73
2021/09/08 09:24:06;;;;;;;35.08;26.08;;;23.30;99.90;;;;;;5034184;28;25086;-74
2021/09/08 09:26:35;;;;;;;33.55;25.58;;;23.20;99.90;;;;;;5032150;28;25050;-72
2021/09/08 09:29:10;;;;;;;37.10;25.95;;;23.30;99.90;;;;;;5032220;28;25080;-72
2021/09/08 09:32:01;;;;;;;36.25;24.33;;;23.20;99.90;;;;;;5032655;28;25079;-74
2021/09/08 09:34:29;;;;;;;35.00;25.10;;;23.30;99.90;;;;;;5032881;28;25059;-74
2021/09/08 09:36:56;;;;;;;30.92;25.52;;;23.50;99.90;;;;;;5033519;28;25041;-73
2021/09/08 09:39:27;;;;;;;34.22;26.85;;;23.20;99.90;;;;;;5034236;28;25072;-73
2021/09/08 09:41:52;;;;;;;32.38;24.67;;;23.00;99.90;;;;;;5034662;28;25097;-75
2021/09/08 09:44:18;;;;;;;33.67;24.60;;;23.20;99.90;;;;;;5034512;28;25074;-72
2021/09/08 09:46:46;;;;;;;31.95;25.95;;;23.10;99.90;;;;;;5034893;28;25064;-72
2021/09/08 09:49:13;;;;;;;32.05;25.08;;;23.00;99.90;;;;;;5034601;28;25075;-70
2021/09/08 09:51:43;;;;;;;35.60;25.55;;;23.10;99.90;;;;;;5034085;28;25067;-74
2021/09/08 09:54:08;;;;;;;33.58;25.02;;;23.40;99.90;;;;;;5033954;28;25062;-73
2021/09/08 09:56:34;;;;;;;30.98;23.33;;;23.40;99.90;;;;;;5034093;28;25075;-73
2021/09/08 09:58:59;;;;;;;31.48;23.48;;;23.30;99.90;;;;;;5026708;28;25099;-72
2021/09/08 10:01:25;;;;;;;30.83;22.55;;;23.40;99.90;;;;;;5024569;28;25061;-74
2021/09/08 10:03:52;;;;;;;29.65;22.83;;;23.60;99.90;;;;;;5013203;28;25082;-75
2021/09/08 10:06:18;;;;;;;31.35;23.65;;;23.70;99.90;;;;;;5018565;28;25062;-76
2021/09/08 10:08:47;;;;;;;30.42;22.65;;;23.60;99.90;;;;;;5011718;28;25060;-75
2021/09/08 10:11:36;;;;;;;27.63;23.20;;;23.40;99.90;;;;;;5009286;28;25062;-75
2021/09/08 10:14:10;;;;;;;35.00;22.77;;;23.40;99.90;;;;;;5004003;28;25076;-76
2021/09/08 10:16:35;;;;;;;35.20;25.30;;;23.30;99.90;;;;;;5006916;28;25063;-73
2021/09/08 10:19:08;;;;;;;29.75;23.88;;;23.20;99.90;;;;;;5001300;28;25078;-77
2021/09/08 10:21:37;;;;;;;35.38;22.98;;;23.20;99.90;;;;;;5000683;28;25105;-73
2021/09/08 10:24:04;;;;;;;27.08;21.67;;;23.40;99.90;;;;;;4992055;28;25060;-76
2021/09/08 10:26:33;;;;;;;34.60;24.40;;;23.70;99.90;;;;;;4999826;28;25143;-74
2021/09/08 10:29:06;;;;;;;30.25;23.83;;;23.70;99.90;;;;;;5005679;28;25058;-76
2021/09/08 10:31:37;;;;;;;28.05;22.27;;;23.60;99.90;;;;;;5000927;28;25048;-75
2021/09/08 10:34:05;;;;;;;37.40;23.50;;;23.80;99.90;;;;;;5012580;28;25075;-75
2021/09/08 10:36:36;;;;;;;28.60;22.38;;;24.00;99.90;;;;;;5020512;28;25094;-75
2021/09/08 10:39:06;;;;;;;30.55;20.48;;;24.10;99.90;;;;;;5013639;28;25079;-73
2021/09/08 10:41:44;;;;;;;28.13;21.90;;;24.30;99.90;;;;;;5009371;28;25113;-74
2021/09/08 10:44:12;;;;;;;29.77;20.58;;;24.50;99.90;;;;;;5001579;28;25072;-74
2021/09/08 10:46:55;;;;;;;29.45;21.27;;;24.70;99.90;;;;;;5000944;28;25143;-75
2021/09/08 10:49:36;;;;;;;30.92;22.67;;;24.70;99.90;;;;;;5001919;28;25065;-74
2021/09/08 10:52:02;;;;;;;25.55;20.35;;;24.60;99.90;;;;;;5005130;28;25154;-75
2021/09/08 10:54:28;;;;;;;29.17;21.73;;;24.70;99.90;;;;;;4999742;28;25075;-76
2021/09/08 10:56:53;;;;;;;29.17;20.98;;;24.50;99.90;;;;;;5002646;28;25074;-73
2021/09/08 10:59:19;;;;;;;27.08;19.65;;;24.60;99.90;;;;;;5003910;28;25087;-75
2021/09/08 11:01:45;;;;;;;26.77;19.60;;;24.70;99.90;;;;;;5003977;28;25082;-76
2021/09/08 11:04:15;;;;;;;28.10;19.92;;;24.80;99.90;;;;;;5007141;28;24860;-75
2021/09/08 11:06:46;;;;;;;26.25;18.88;;;25.00;99.90;;;;;;5004053;28;25160;-74
2021/09/08 11:09:14;;;;;;;26.67;17.80;;;25.00;99.90;;;;;;4991283;28;25070;-74
2021/09/08 11:11:56;;;;;;;22.02;17.33;;;25.00;99.90;;;;;;4994128;28;25111;-74
2021/09/08 11:14:45;;;;;;;31.05;16.88;;;25.20;99.90;;;;;;5001268;28;25054;-74
2021/09/08 11:17:21;;;;;;;26.05;18.15;;;25.30;99.90;;;;;;4994231;28;25071;-76
2021/09/08 11:19:54;;;;;;;23.77;16.02;;;25.50;99.90;;;;;;4997946;28;25048;-75
2021/09/08 11:22:20;;;;;;;22.08;16.70;;;25.90;99.90;;;;;;4992240;28;25066;-77
2021/09/08 11:25:10;;;;;;;18.63;15.48;;;25.90;99.90;;;;;;4996939;28;25056;-77
2021/09/08 11:27:37;;;;;;;22.33;15.77;;;26.00;99.90;;;;;;5001045;28;25073;-77
2021/09/08 11:30:13;;;;;;;24.83;15.30;;;26.20;99.90;;;;;;4992253;28;25161;-75
2021/09/08 11:32:55;;;;;;;22.92;17.20;;;26.70;99.90;;;;;;4995542;28;25059;-72
2021/09/08 11:35:40;;;;;;;25.02;15.10;;;27.10;99.90;;;;;;5003745;28;25058;-75
2021/09/08 11:38:24;;;;;;;21.15;15.65;;;27.30;98.60;;;;;;4996790;28;25064;-75
2021/09/08 11:40:56;;;;;;;19.67;14.88;;;27.70;97.90;;;;;;4998483;28;25085;-76
2021/09/08 11:43:38;;;;;;;17.33;14.98;;;28.50;96.80;;;;;;5001849;28;25072;-72
2021/09/08 11:46:20;;;;;;;23.23;15.57;;;28.50;95.70;;;;;;4993688;28;25136;-73
2021/09/08 11:48:51;;;;;;;21.77;14.93;;;28.80;95.30;;;;;;4992896;28;25078;-73
2021/09/08 11:51:19;;;;;;;23.17;16.55;;;29.00;94.80;;;;;;4993590;28;25069;-73
2021/09/08 11:53:51;;;;;;;22.77;17.90;;;29.00;94.10;;;;;;4996396;28;25063;-73
2021/09/08 11:56:19;;;;;;;23.50;15.55;;;28.90;93.40;;;;;;5012555;28;25131;-74
2021/09/08 11:58:52;;;;;;;24.40;16.83;;;29.30;93.90;;;;;;5012190;28;25130;-74
2021/09/08 12:01:18;;;;;;;22.48;15.65;;;29.00;93.30;;;;;;5012409;28;25068;-74
2021/09/08 12:03:56;;;;;;;23.35;16.15;;;29.50;93.40;;;;;;5012695;28;25124;-74
2021/09/08 12:06:24;;;;;;;19.08;15.05;;;29.50;93.70;;;;;;5010987;28;25093;-74
2021/09/08 12:08:55;;;;;;;16.38;14.45;;;29.80;93.20;;;;;;5010916;28;25068;-75
2021/09/08 12:11:31;;;;;;;21.85;14.48;;;29.70;91.80;;;;;;5012373;28;25071;-73
2021/09/08 12:14:28;;;;;;;23.10;14.05;;;29.70;92.10;;;;;;5008868;28;25068;-75
2021/09/08 12:17:00;;;;;;;21.95;14.98;;;29.60;90.80;;;;;;5011678;28;25083;-75
2021/09/08 12:19:33;;;;;;;21.55;12.98;;;29.30;91.00;;;;;;5012147;28;25066;-74
2021/09/08 12:22:15;;;;;;;15.00;12.90;;;29.60;91.50;;;;;;5012290;28;25138;-75
2021/09/08 12:24:46;;;;;;;18.30;13.63;;;29.50;91.10;;;;;;5011445;28;25127;-74
2021/09/08 12:27:37;;;;;;;19.67;14.05;;;29.40;91.00;;;;;;5010615;28;25143;-75
2021/09/08 12:30:19;;;;;;;21.58;16.05;;;29.60;90.90;;;;;;5011617;28;25083;-71